Time;durP1;ratioP1;P1;durP2;ratioP2;P2;SDS_P1;SDS_P2;PMS_P1;PMS_P2;Temp;Humidity;BMP_temperature;BMP_pressure;BME280_temperature;BME280_humidity;BME280_pressure;Samples;Min_cycle;Max_cycle;Signal;HPM_P1;HPM_P2
2023/02/13 00:00:48;;;;;;;49.93;28.80;;;0.30;99.90;;;;;;5027967;28;20207;-50
2023/02/13 00:03:15;;;;;;;49.70;34.17;;;0.30;99.90;;;;;;5038443;28;20264;-50
2023/02/13 00:05:42;;;;;;;36.23;25.13;;;0.30;99.90;;;;;;5033802;28;20601;-50
2023/02/13 00:08:09;;;;;;;38.60;23.70;;;0.30;99.90;;;;;;5025122;28;20209;-53
2023/02/13 00:10:38;;;;;;;40.07;24.33;;;0.30;99.90;;;;;;5030104;28;20707;-50
2023/02/13 00:13:05;;;;;;;35.20;22.37;;;0.20;99.90;;;;;;5032065;28;20561;-50
2023/02/13 00:15:32;;;;;;;49.53;26.90;;;0.20;99.90;;;;;;5047498;28;20785;-51
2023/02/13 00:17:59;;;;;;;45.43;25.83;;;0.20;99.90;;;;;;5034584;28;20201;-50
2023/02/13 00:20:26;;;;;;;35.20;22.53;;;0.20;99.90;;;;;;5034066;28;20202;-51
2023/02/13 00:22:53;;;;;;;36.20;23.50;;;0.10;99.90;;;;;;5032995;28;20617;-50
2023/02/13 00:25:20;;;;;;;48.53;28.13;;;0.00;99.90;;;;;;5042727;28;20284;-51
2023/02/13 00:27:51;;;;;;;48.70;24.07;;;0.00;99.90;;;;;;5035390;28;20210;-50
2023/02/13 00:30:18;;;;;;;49.40;27.07;;;0.00;99.90;;;;;;5046398;28;20195;-50
2023/02/13 00:32:45;;;;;;;39.43;24.93;;;0.00;99.90;;;;;;5055085;28;20264;-50
2023/02/13 00:35:12;;;;;;;38.23;24.23;;;0.00;99.90;;;;;;5045288;28;20244;-51
2023/02/13 00:37:39;;;;;;;42.53;23.33;;;0.00;99.90;;;;;;5040444;28;20210;-50
2023/02/13 00:40:07;;;;;;;36.67;22.27;;;-0.10;99.90;;;;;;5033495;28;20200;-51
2023/02/13 00:42:34;;;;;;;31.77;20.47;;;-0.10;99.90;;;;;;5035017;28;20216;-52
2023/02/13 00:45:02;;;;;;;32.20;21.87;;;-0.10;99.90;;;;;;5038823;28;20218;-50
2023/02/13 00:47:29;;;;;;;34.10;21.77;;;-0.20;99.90;;;;;;5051946;28;20204;-49
2023/02/13 00:49:56;;;;;;;40.33;23.40;;;-0.20;99.90;;;;;;5044169;28;20216;-50
2023/02/13 00:52:23;;;;;;;35.17;22.50;;;-0.20;99.90;;;;;;5041393;28;20635;-50
2023/02/13 00:54:50;;;;;;;37.93;22.50;;;-0.20;99.90;;;;;;5033918;28;20644;-52
2023/02/13 00:57:17;;;;;;;37.57;22.73;;;-0.20;99.90;;;;;;5037336;28;20659;-50
2023/02/13 00:59:44;;;;;;;37.73;22.33;;;-0.20;99.90;;;;;;5045450;28;20213;-51
2023/02/13 01:02:13;;;;;;;35.40;23.37;;;-0.20;99.90;;;;;;5045135;28;20191;-50
2023/02/13 01:04:40;;;;;;;35.67;23.00;;;-0.20;99.90;;;;;;5040140;28;20300;-50
2023/02/13 01:07:07;;;;;;;43.83;23.83;;;-0.30;99.90;;;;;;5038792;28;20731;-51
2023/02/13 01:09:34;;;;;;;37.43;23.13;;;-0.30;99.90;;;;;;5045911;28;20195;-50
2023/02/13 01:12:01;;;;;;;42.83;24.13;;;-0.30;99.90;;;;;;5054572;28;20234;-51
2023/02/13 01:14:28;;;;;;;40.03;25.33;;;-0.30;99.90;;;;;;5045825;28;20218;-50
2023/02/13 01:16:56;;;;;;;38.30;23.20;;;-0.30;99.90;;;;;;5045447;28;20192;-51
2023/02/13 01:19:24;;;;;;;36.20;23.53;;;-0.40;99.90;;;;;;5048708;28;20210;-50
2023/02/13 01:21:51;;;;;;;41.77;23.53;;;-0.40;99.90;;;;;;5031926;28;20201;-51
2023/02/13 01:24:18;;;;;;;37.00;22.90;;;-0.40;99.90;;;;;;5041229;28;20223;-50
2023/02/13 01:26:45;;;;;;;39.70;23.33;;;-0.40;99.90;;;;;;5042003;28;20614;-51
2023/02/13 01:29:13;;;;;;;39.90;22.73;;;-0.40;99.90;;;;;;5033809;28;20671;-50
2023/02/13 01:31:40;;;;;;;36.27;22.17;;;-0.30;99.90;;;;;;5028757;28;20574;-51
2023/02/13 01:34:07;;;;;;;37.80;21.83;;;-0.30;99.90;;;;;;5031992;28;20217;-50
2023/02/13 01:36:35;;;;;;;36.73;23.17;;;-0.30;99.90;;;;;;5032032;28;20196;-50
2023/02/13 01:39:02;;;;;;;32.07;20.73;;;-0.30;99.90;;;;;;5044950;28;20623;-50
2023/02/13 01:41:29;;;;;;;28.40;18.90;;;-0.20;99.90;;;;;;5049643;28;20693;-49
2023/02/13 01:43:57;;;;;;;32.10;19.63;;;-0.20;99.90;;;;;;5045556;28;20212;-50
2023/02/13 01:46:30;;;;;;;36.17;21.80;;;-0.20;99.90;;;;;;5039608;28;20195;-50
2023/02/13 01:49:04;;;;;;;35.77;21.60;;;-0.20;99.90;;;;;;5031097;28;20200;-51
2023/02/13 01:51:34;;;;;;;34.87;22.07;;;-0.20;99.90;;;;;;5033755;28;20312;-49
2023/02/13 01:54:07;;;;;;;32.90;19.83;;;-0.20;99.90;;;;;;5044326;28;20226;-50
2023/02/13 01:56:37;;;;;;;34.27;22.63;;;-0.20;99.90;;;;;;5036438;28;20262;-50
2023/02/13 01:59:08;;;;;;;32.67;21.37;;;-0.20;99.90;;;;;;5033190;28;20291;-51
2023/02/13 02:01:37;;;;;;;31.73;21.53;;;-0.20;99.90;;;;;;5023661;28;20197;-50
2023/02/13 02:04:09;;;;;;;30.73;20.43;;;-0.20;99.90;;;;;;5036220;28;20295;-51
2023/02/13 02:06:39;;;;;;;35.00;22.07;;;-0.20;99.90;;;;;;5030913;28;20203;-51
2023/02/13 02:09:12;;;;;;;31.93;19.63;;;-0.20;99.90;;;;;;5037828;28;20195;-51
2023/02/13 02:11:48;;;;;;;29.53;18.50;;;-0.10;99.90;;;;;;5044469;28;20224;-50
2023/02/13 02:14:16;;;;;;;24.63;16.33;;;-0.10;99.90;;;;;;5032578;28;20308;-50
2023/02/13 02:16:43;;;;;;;24.80;16.33;;;0.00;99.90;;;;;;5033040;28;20205;-50
2023/02/13 02:19:19;;;;;;;24.27;16.70;;;0.00;99.90;;;;;;5033076;28;20758;-51
2023/02/13 02:22:24;;;;;;;25.23;16.63;;;0.10;99.90;;;;;;5030714;28;20255;-51
2023/02/13 02:25:23;;;;;;;27.80;16.80;;;0.20;99.90;;;;;;4999004;28;20226;-49
2023/02/13 02:28:25;;;;;;;26.67;16.40;;;0.20;99.90;;;;;;5044316;28;20664;-50
2023/02/13 02:31:18;;;;;;;22.67;15.07;;;0.30;99.90;;;;;;5035384;28;20284;-51
2023/02/13 02:34:01;;;;;;;23.53;15.27;;;0.30;99.90;;;;;;5032808;28;20225;-50
2023/02/13 02:36:42;;;;;;;22.87;16.60;;;0.40;99.90;;;;;;5044077;28;20199;-50
2023/02/13 02:39:20;;;;;;;22.23;15.30;;;0.40;99.90;;;;;;5040122;28;20199;-50
2023/02/13 02:42:00;;;;;;;28.40;15.87;;;0.50;99.90;;;;;;5032841;28;20628;-50
2023/02/13 02:44:39;;;;;;;26.47;18.33;;;0.50;99.90;;;;;;5052331;28;20226;-53
2023/02/13 02:50:17;;;;;;;52.63;38.83;;;0.60;99.90;;;;;;5040419;28;20203;-49
2023/02/13 02:52:55;;;;;;;38.93;29.57;;;0.70;99.90;;;;;;5032191;28;20228;-49
2023/02/13 02:55:37;;;;;;;30.23;19.70;;;0.70;99.90;;;;;;5035538;28;20589;-51
2023/02/13 03:06:36;;;;;;;30.07;20.23;;;0.80;99.90;;;;;;5038787;28;20323;-49
2023/02/13 03:14:38;;;;;;;28.70;18.53;;;0.80;99.90;;;;;;5036324;28;20204;-52
2023/02/13 03:23:07;;;;;;;24.60;16.57;;;0.90;99.90;;;;;;5019845;28;20246;-52
2023/02/13 03:25:44;;;;;;;23.93;16.13;;;0.90;99.90;;;;;;5028180;28;20207;-52
2023/02/13 03:31:10;;;;;;;28.57;17.53;;;0.90;99.90;;;;;;5031187;28;20194;-52
2023/02/13 03:33:50;;;;;;;24.47;16.63;;;1.00;99.90;;;;;;5030546;28;20208;-52
2023/02/13 03:39:16;;;;;;;25.30;19.13;;;1.00;99.90;;;;;;5029166;28;20205;-53
2023/02/13 03:41:49;;;;;;;27.43;20.60;;;1.10;99.90;;;;;;5050356;28;20293;-52
2023/02/13 03:44:23;;;;;;;28.60;19.87;;;1.10;99.90;;;;;;5038049;28;20195;-52
2023/02/13 03:46:53;;;;;;;28.17;19.00;;;1.10;99.90;;;;;;5034746;28;20665;-52
2023/02/13 03:52:11;;;;;;;25.33;18.03;;;1.20;99.90;;;;;;5010747;28;20246;-51
2023/02/13 04:00:17;;;;;;;22.40;15.97;;;1.30;99.90;;;;;;5035368;28;20280;-52
2023/02/13 04:02:54;;;;;;;22.97;16.33;;;1.20;99.90;;;;;;5035609;28;20217;-52
2023/02/13 04:05:25;;;;;;;21.87;16.23;;;1.20;99.90;;;;;;5054167;28;20197;-51
2023/02/13 04:07:52;;;;;;;21.97;15.07;;;1.30;99.90;;;;;;5054515;28;20598;-52
2023/02/13 04:10:22;;;;;;;24.30;15.23;;;1.30;99.90;;;;;;5046745;28;20203;-52
2023/02/13 04:12:57;;;;;;;23.77;15.83;;;1.30;99.90;;;;;;5043537;28;20304;-51
2023/02/13 04:15:29;;;;;;;22.90;15.07;;;1.30;99.90;;;;;;5042177;28;20629;-52
2023/02/13 04:18:03;;;;;;;25.20;16.77;;;1.30;99.90;;;;;;5040046;28;20665;-52
2023/02/13 04:20:32;;;;;;;22.93;16.70;;;1.40;99.90;;;;;;5033831;28;20291;-53
2023/02/13 04:23:05;;;;;;;27.67;17.17;;;1.40;99.90;;;;;;5033751;28;20221;-52
2023/02/13 04:25:34;;;;;;;27.40;18.30;;;1.40;99.90;;;;;;5033878;28;20208;-53
2023/02/13 04:28:01;;;;;;;23.20;15.57;;;1.40;99.90;;;;;;5036018;28;20198;-52
2023/02/13 04:30:28;;;;;;;25.67;17.10;;;1.40;99.90;;;;;;5035328;28;20785;-52
2023/02/13 04:32:55;;;;;;;25.17;16.80;;;1.50;99.90;;;;;;5041905;28;20219;-52
2023/02/13 04:35:22;;;;;;;29.83;17.83;;;1.50;99.90;;;;;;5030796;28;20203;-51
2023/02/13 04:37:49;;;;;;;26.37;18.23;;;1.60;99.90;;;;;;5033727;28;20635;-52
2023/02/13 04:40:16;;;;;;;24.03;16.23;;;1.60;99.90;;;;;;5033424;28;20688;-51
2023/02/13 04:42:44;;;;;;;28.80;19.53;;;1.60;99.90;;;;;;5033326;28;20222;-52
2023/02/13 04:45:11;;;;;;;28.07;18.37;;;1.60;99.90;;;;;;5036513;28;20203;-51
2023/02/13 04:47:38;;;;;;;33.23;20.33;;;1.60;99.90;;;;;;5033178;28;20207;-51
2023/02/13 04:50:06;;;;;;;39.93;24.00;;;1.70;99.90;;;;;;5036444;28;20212;-52
2023/02/13 04:52:33;;;;;;;37.40;22.43;;;1.80;99.90;;;;;;5028802;28;20651;-53
2023/02/13 04:55:00;;;;;;;37.40;22.83;;;1.80;99.90;;;;;;5034859;28;20635;-52
2023/02/13 04:57:30;;;;;;;36.73;21.90;;;1.80;99.90;;;;;;5031915;28;20614;-52
2023/02/13 04:59:58;;;;;;;38.00;23.23;;;1.90;99.90;;;;;;5033089;28;20195;-52
2023/02/13 05:02:25;;;;;;;33.93;21.57;;;1.90;99.90;;;;;;5027696;28;20516;-52
2023/02/13 05:04:52;;;;;;;33.80;20.57;;;1.90;99.90;;;;;;5026372;28;20684;-51
2023/02/13 05:07:19;;;;;;;37.03;23.17;;;1.90;99.90;;;;;;5013641;28;20204;-52
2023/02/13 05:09:46;;;;;;;34.67;21.83;;;1.90;99.90;;;;;;5017842;28;20632;-51
2023/02/13 05:12:13;;;;;;;36.07;23.33;;;1.90;99.90;;;;;;5021452;28;20228;-53
2023/02/13 05:14:40;;;;;;;36.50;22.17;;;1.80;99.90;;;;;;5022207;28;20628;-51
2023/02/13 05:17:08;;;;;;;32.33;20.97;;;1.80;99.90;;;;;;5025925;28;20221;-52
2023/02/13 05:19:35;;;;;;;33.07;20.70;;;1.80;99.90;;;;;;5017993;28;20255;-52
2023/02/13 05:24:47;;;;;;;36.53;21.47;;;1.80;99.90;;;;;;5013475;28;20702;-51
2023/02/13 05:27:14;;;;;;;34.87;20.60;;;1.80;99.90;;;;;;5023034;28;20199;-51
2023/02/13 05:29:40;;;;;;;32.37;19.30;;;1.80;99.90;;;;;;5031914;28;20270;-51
2023/02/13 05:32:09;;;;;;;27.07;17.50;;;1.70;99.90;;;;;;5031503;28;20231;-52
2023/02/13 05:34:36;;;;;;;30.97;18.03;;;1.70;99.90;;;;;;5023509;28;20254;-52
2023/02/13 05:37:03;;;;;;;25.50;16.63;;;1.60;99.90;;;;;;5031869;28;20229;-51
2023/02/13 05:39:30;;;;;;;25.23;16.97;;;1.60;99.90;;;;;;5014432;28;20197;-52
2023/02/13 05:41:57;;;;;;;29.20;18.43;;;1.50;99.90;;;;;;5014375;28;20229;-52
2023/02/13 05:44:24;;;;;;;29.20;18.83;;;1.50;99.90;;;;;;5029517;28;20657;-52
2023/02/13 05:46:52;;;;;;;24.13;15.63;;;1.50;99.90;;;;;;5020808;28;20256;-52
2023/02/13 05:49:21;;;;;;;28.80;18.37;;;1.40;99.90;;;;;;5013022;28;20201;-52
2023/02/13 05:51:51;;;;;;;31.37;17.57;;;1.50;99.90;;;;;;5026422;28;20779;-52
2023/02/13 05:54:19;;;;;;;27.60;16.97;;;1.50;99.90;;;;;;5017055;28;20568;-52
2023/02/13 05:56:46;;;;;;;25.77;16.33;;;1.50;99.90;;;;;;5012701;28;20601;-53
2023/02/13 05:59:13;;;;;;;25.47;16.43;;;1.40;99.90;;;;;;5012809;28;20194;-52
2023/02/13 06:01:40;;;;;;;31.67;18.13;;;1.50;99.90;;;;;;5017039;28;20224;-53
2023/02/13 06:04:07;;;;;;;32.80;17.97;;;1.50;99.90;;;;;;5019371;28;20623;-52
2023/02/13 06:06:35;;;;;;;29.40;17.40;;;1.50;99.90;;;;;;5017433;28;20254;-53
2023/02/13 06:09:02;;;;;;;27.27;16.77;;;1.50;99.90;;;;;;5026073;28;20303;-53
2023/02/13 06:11:30;;;;;;;30.80;19.60;;;1.50;99.90;;;;;;5025896;28;20222;-52
2023/02/13 06:13:57;;;;;;;30.00;19.10;;;1.50;99.90;;;;;;5034637;28;20220;-52
2023/02/13 06:16:24;;;;;;;31.20;17.80;;;1.50;99.90;;;;;;5024596;28;20597;-53
2023/02/13 06:18:51;;;;;;;33.93;20.13;;;1.50;99.90;;;;;;5021541;28;20254;-51
2023/02/13 06:21:18;;;;;;;28.50;17.07;;;1.50;99.90;;;;;;5036067;28;20582;-52
2023/02/13 06:23:46;;;;;;;32.27;19.43;;;1.50;99.90;;;;;;5024590;28;20562;-52
2023/02/13 06:26:13;;;;;;;31.40;19.33;;;1.50;99.90;;;;;;5039521;28;20191;-51
2023/02/13 06:28:40;;;;;;;31.67;19.67;;;1.60;99.90;;;;;;5031666;28;20267;-52
2023/02/13 06:31:07;;;;;;;31.80;18.80;;;1.60;99.90;;;;;;5030121;28;20225;-52
2023/02/13 06:33:34;;;;;;;30.17;17.53;;;1.50;99.90;;;;;;5028834;28;20617;-52
2023/02/13 06:36:01;;;;;;;32.90;18.70;;;1.60;99.90;;;;;;5031461;28;20257;-52
2023/02/13 06:38:28;;;;;;;29.40;19.83;;;1.60;99.90;;;;;;5030201;28;20200;-53
2023/02/13 06:41:00;;;;;;;33.07;19.83;;;1.60;99.90;;;;;;5029138;28;20255;-52
2023/02/13 06:43:28;;;;;;;36.77;20.53;;;1.60;99.90;;;;;;5017070;28;20200;-51
2023/02/13 06:45:55;;;;;;;28.20;17.97;;;1.60;99.90;;;;;;5011658;28;20229;-52
2023/02/13 06:48:22;;;;;;;29.87;19.53;;;1.60;99.90;;;;;;5011826;28;20192;-51
2023/02/13 06:50:50;;;;;;;37.93;19.63;;;1.60;99.90;;;;;;5011610;28;20192;-52
2023/02/13 06:53:23;;;;;;;31.13;18.47;;;1.70;99.90;;;;;;5015288;28;20652;-51
2023/02/13 06:55:50;;;;;;;32.90;20.73;;;1.60;99.90;;;;;;5027613;28;20211;-52
2023/02/13 06:58:19;;;;;;;32.87;20.40;;;1.60;99.90;;;;;;5015878;28;20697;-52
2023/02/13 07:00:46;;;;;;;32.73;20.57;;;1.70;99.90;;;;;;5015233;28;20201;-52
2023/02/13 07:03:13;;;;;;;34.10;19.63;;;1.70;99.90;;;;;;5011413;28;20208;-52
2023/02/13 07:05:41;;;;;;;36.13;21.03;;;1.70;99.90;;;;;;5011254;28;20201;-51
2023/02/13 07:08:08;;;;;;;37.20;20.47;;;1.70;99.90;;;;;;5012210;28;20284;-51
2023/02/13 07:10:37;;;;;;;37.47;20.93;;;1.70;99.90;;;;;;5029406;28;20208;-51
2023/02/13 07:13:04;;;;;;;34.87;21.13;;;1.70;99.90;;;;;;5020972;28;20309;-52
2023/02/13 07:15:33;;;;;;;37.40;21.47;;;1.80;99.90;;;;;;5018860;28;20343;-52
2023/02/13 07:18:01;;;;;;;37.73;23.47;;;1.80;99.90;;;;;;5011065;28;20192;-52
2023/02/13 07:20:28;;;;;;;40.17;22.30;;;1.90;99.90;;;;;;5010731;28;20258;-52
2023/02/13 07:22:58;;;;;;;35.63;21.13;;;2.00;99.90;;;;;;5010746;28;20291;-53
2023/02/13 07:25:26;;;;;;;37.53;22.90;;;2.00;99.90;;;;;;5015550;28;20206;-53
2023/02/13 07:27:53;;;;;;;35.60;21.47;;;2.10;99.90;;;;;;5021335;28;20250;-52
2023/02/13 07:30:20;;;;;;;43.17;23.83;;;2.10;99.90;;;;;;5011257;28;20250;-53
2023/02/13 07:32:50;;;;;;;39.73;23.23;;;2.20;99.90;;;;;;5009917;28;20217;-51
2023/02/13 07:35:17;;;;;;;41.97;23.83;;;2.20;99.90;;;;;;5010753;28;20196;-52
2023/02/13 07:37:44;;;;;;;41.43;23.17;;;2.30;99.90;;;;;;5010706;28;20658;-52
2023/02/13 07:40:11;;;;;;;39.33;23.43;;;2.40;99.90;;;;;;5011524;28;20262;-52
2023/02/13 07:42:38;;;;;;;38.73;22.90;;;2.40;99.90;;;;;;5025167;28;20706;-50
2023/02/13 07:45:07;;;;;;;36.63;23.17;;;2.50;99.90;;;;;;5025540;28;20204;-51
2023/02/13 07:47:34;;;;;;;32.33;20.20;;;2.50;99.90;;;;;;5012025;28;20208;-52
2023/02/13 07:50:04;;;;;;;35.70;20.53;;;2.60;99.90;;;;;;5011100;28;20671;-51
2023/02/13 07:52:32;;;;;;;35.00;20.33;;;2.60;99.90;;;;;;5011136;28;20224;-52
2023/02/13 07:54:59;;;;;;;38.43;23.20;;;2.60;99.90;;;;;;5016535;28;20200;-51
2023/02/13 07:57:26;;;;;;;36.73;23.20;;;2.60;99.90;;;;;;5025829;28;20645;-52
2023/02/13 07:59:53;;;;;;;37.00;21.17;;;2.60;99.90;;;;;;5033766;28;20203;-54
2023/02/13 08:02:20;;;;;;;35.57;23.90;;;2.60;99.90;;;;;;5029976;28;20701;-51
2023/02/13 08:04:47;;;;;;;36.43;22.07;;;2.60;99.90;;;;;;5028961;28;20236;-51
2023/02/13 08:07:16;;;;;;;39.23;23.80;;;2.70;99.90;;;;;;5031531;28;20200;-51
2023/02/13 08:12:34;;;;;;;39.90;22.77;;;2.70;99.90;;;;;;5030979;28;20349;-53
2023/02/13 08:15:01;;;;;;;39.57;21.17;;;2.70;99.90;;;;;;5031893;28;20203;-52
2023/02/13 08:17:32;;;;;;;37.77;20.57;;;2.80;99.90;;;;;;5036619;28;20211;-52
2023/02/13 08:19:59;;;;;;;37.10;20.70;;;2.90;99.90;;;;;;5035365;28;20197;-51
2023/02/13 08:22:27;;;;;;;29.80;19.43;;;3.00;99.90;;;;;;5028910;28;20224;-51
2023/02/13 08:24:54;;;;;;;38.33;21.63;;;3.10;99.90;;;;;;5029762;28;20867;-51
2023/02/13 08:27:21;;;;;;;33.90;19.23;;;3.20;99.90;;;;;;5026810;28;20262;-51
2023/02/13 08:29:49;;;;;;;35.57;18.80;;;3.30;99.90;;;;;;5029629;28;20567;-53
2023/02/13 08:32:16;;;;;;;35.53;21.63;;;3.40;99.90;;;;;;5028793;28;20318;-53
2023/02/13 08:34:43;;;;;;;37.93;22.10;;;3.50;99.90;;;;;;5028713;28;20273;-51
2023/02/13 08:37:10;;;;;;;35.37;20.93;;;3.50;99.90;;;;;;5027843;28;20883;-52
2023/02/13 08:39:39;;;;;;;32.97;21.33;;;3.50;99.90;;;;;;5029733;28;20204;-52
2023/02/13 08:42:06;;;;;;;32.10;21.00;;;3.60;99.90;;;;;;5023778;28;20225;-52
2023/02/13 08:44:32;;;;;;;34.90;20.10;;;3.60;99.90;;;;;;5031360;28;20208;-52
2023/02/13 08:47:02;;;;;;;35.73;21.80;;;3.50;99.90;;;;;;5033216;28;20208;-52
2023/02/13 08:49:29;;;;;;;34.47;21.00;;;3.60;99.90;;;;;;5032479;28;20219;-52
2023/02/13 08:51:56;;;;;;;32.83;19.57;;;3.60;99.90;;;;;;5030950;28;20232;-52
2023/02/13 08:54:23;;;;;;;32.27;20.77;;;3.50;99.90;;;;;;5028998;28;20220;-54
2023/02/13 08:56:51;;;;;;;39.07;21.03;;;3.50;99.90;;;;;;5033999;28;20257;-51
2023/02/13 08:59:18;;;;;;;30.23;18.77;;;3.70;99.90;;;;;;5026181;28;20270;-52
2023/02/13 09:01:45;;;;;;;35.22;22.45;;;3.90;99.90;;;;;;5026916;28;20532;-52
2023/02/13 09:04:14;;;;;;;32.43;20.53;;;4.10;99.90;;;;;;5037701;28;20207;-51
2023/02/13 09:06:41;;;;;;;34.03;21.93;;;4.20;99.90;;;;;;5038998;28;20239;-53
2023/02/13 09:09:08;;;;;;;36.53;21.77;;;4.20;99.90;;;;;;5039340;28;20267;-52
2023/02/13 09:11:35;;;;;;;38.40;22.47;;;4.10;99.90;;;;;;5071866;22;20277;-48
2023/02/13 09:14:03;;;;;;;37.40;21.80;;;4.30;99.90;;;;;;5056020;28;20219;-48
2023/02/13 09:16:31;;;;;;;33.97;22.60;;;4.40;99.90;;;;;;5059339;28;20268;-47
2023/02/13 09:18:58;;;;;;;32.83;20.30;;;4.40;99.90;;;;;;5063861;28;20256;-48
2023/02/13 09:21:25;;;;;;;32.40;20.23;;;4.50;99.90;;;;;;5056254;28;20213;-48
2023/02/13 09:23:54;;;;;;;36.57;21.73;;;4.50;99.90;;;;;;5053006;28;20260;-47
2023/02/13 09:26:21;;;;;;;35.00;21.97;;;4.60;99.90;;;;;;5053247;28;20636;-48
2023/02/13 09:28:48;;;;;;;31.97;19.77;;;4.50;99.90;;;;;;5053186;28;20204;-48
2023/02/13 09:31:18;;;;;;;34.13;21.50;;;4.60;99.90;;;;;;5048767;28;20227;-48
2023/02/13 09:33:47;;;;;;;38.20;22.37;;;4.70;99.90;;;;;;5053266;28;20261;-47
2023/02/13 09:36:18;;;;;;;36.00;21.33;;;4.60;99.90;;;;;;5050191;28;20202;-47
2023/02/13 09:38:45;;;;;;;37.43;22.03;;;4.70;99.90;;;;;;5050127;28;20567;-48
2023/02/13 09:41:16;;;;;;;36.13;22.57;;;4.70;99.90;;;;;;5052368;28;20214;-48
2023/02/13 09:43:47;;;;;;;40.97;21.47;;;4.70;99.90;;;;;;5052781;28;20207;-48
2023/02/13 09:46:19;;;;;;;41.30;22.57;;;4.70;99.90;;;;;;5052711;28;20550;-48
2023/02/13 09:48:50;;;;;;;36.77;22.40;;;4.70;99.90;;;;;;5052605;28;20210;-49
2023/02/13 09:51:20;;;;;;;37.23;23.07;;;4.70;99.90;;;;;;5037487;28;20658;-48
2023/02/13 09:53:52;;;;;;;35.07;22.00;;;4.70;99.90;;;;;;5036509;28;20291;-47
2023/02/13 09:56:26;;;;;;;34.87;20.70;;;4.60;99.90;;;;;;5031841;28;20200;-48
2023/02/13 09:59:00;;;;;;;34.13;21.70;;;4.60;99.90;;;;;;5039997;28;20277;-47
2023/02/13 10:01:31;;;;;;;36.70;21.53;;;4.80;99.90;;;;;;5043209;28;20664;-48
2023/02/13 10:04:19;;;;;;;33.40;19.87;;;4.90;99.90;;;;;;5032658;28;20719;-48
2023/02/13 10:06:49;;;;;;;36.03;22.33;;;5.00;99.90;;;;;;5053599;28;20206;-47
2023/02/13 10:09:25;;;;;;;35.73;21.07;;;4.90;99.90;;;;;;5056587;28;20195;-47
2023/02/13 10:12:13;;;;;;;36.87;22.17;;;5.20;99.90;;;;;;5063637;28;20372;-48
2023/02/13 10:14:49;;;;;;;33.57;20.07;;;5.40;99.90;;;;;;5062270;28;20227;-47
2023/02/13 10:17:23;;;;;;;32.63;20.43;;;5.50;99.90;;;;;;5049993;28;20204;-48
2023/02/13 10:19:55;;;;;;;34.40;21.33;;;5.80;99.90;;;;;;5036125;28;20218;-48
2023/02/13 10:22:30;;;;;;;32.40;20.13;;;5.90;99.90;;;;;;5044377;28;20225;-49
2023/02/13 10:25:03;;;;;;;32.00;20.07;;;6.00;99.90;;;;;;5034558;28;20249;-47
2023/02/13 10:27:37;;;;;;;35.70;20.77;;;6.30;99.90;;;;;;5033194;28;20235;-48
2023/02/13 10:30:12;;;;;;;32.67;19.87;;;6.90;99.90;;;;;;5048134;28;20195;-48
2023/02/13 10:33:10;;;;;;;33.57;21.53;;;7.50;99.90;;;;;;5050758;28;20330;-47
2023/02/13 10:35:37;;;;;;;33.53;19.23;;;7.80;99.90;;;;;;5045883;28;20207;-48
2023/02/13 10:38:14;;;;;;;30.43;20.60;;;8.00;99.90;;;;;;5039277;28;20194;-47
2023/02/13 10:40:53;;;;;;;32.17;19.63;;;8.60;99.90;;;;;;5032374;28;20296;-48
2023/02/13 10:43:26;;;;;;;28.93;18.63;;;9.40;99.90;;;;;;5032329;28;20273;-48
2023/02/13 10:46:04;;;;;;;27.83;19.00;;;9.40;99.90;;;;;;5032841;28;20196;-48
2023/02/13 10:48:48;;;;;;;32.17;19.97;;;9.60;99.90;;;;;;5035806;28;20209;-48
2023/02/13 10:51:21;;;;;;;29.00;18.60;;;10.00;99.90;;;;;;5048252;28;20586;-48
2023/02/13 10:53:59;;;;;;;28.40;19.93;;;10.20;99.90;;;;;;5049406;28;20651;-47
2023/02/13 10:56:30;;;;;;;33.63;21.70;;;10.10;99.90;;;;;;5050590;28;20199;-48
2023/02/13 10:59:14;;;;;;;29.97;20.13;;;9.80;99.90;;;;;;5050677;28;20201;-47
2023/02/13 11:01:47;;;;;;;35.13;21.43;;;9.40;99.90;;;;;;5031205;28;20223;-47
2023/02/13 11:04:19;;;;;;;33.40;20.23;;;8.90;99.90;;;;;;5048163;28;20196;-48
2023/02/13 11:06:52;;;;;;;28.53;19.17;;;8.50;99.90;;;;;;5045298;28;20204;-48
2023/02/13 11:09:20;;;;;;;35.70;21.60;;;8.60;99.90;;;;;;5032203;28;20834;-49
2023/02/13 11:11:47;;;;;;;34.07;19.80;;;8.50;99.90;;;;;;5031958;28;20281;-48
2023/02/13 11:14:16;;;;;;;32.53;21.00;;;8.40;99.90;;;;;;5031558;28;20702;-50
2023/02/13 11:16:50;;;;;;;29.67;19.53;;;8.00;99.90;;;;;;5034890;28;20201;-48
2023/02/13 11:19:25;;;;;;;36.23;22.17;;;7.80;99.90;;;;;;5052706;28;20256;-47
2023/02/13 11:21:55;;;;;;;37.80;20.43;;;7.90;99.90;;;;;;5071264;28;20230;-48
2023/02/13 11:24:24;;;;;;;31.70;21.20;;;7.80;99.90;;;;;;5068001;28;20202;-47
2023/02/13 11:26:54;;;;;;;34.67;21.83;;;7.60;99.90;;;;;;5061296;28;20282;-49
2023/02/13 11:29:26;;;;;;;34.13;21.00;;;7.70;99.90;;;;;;5049481;28;20205;-49
2023/02/13 11:32:17;;;;;;;35.00;22.98;;;7.80;99.90;;;;;;5049825;28;20541;-49
2023/02/13 11:34:49;;;;;;;30.00;21.47;;;7.70;99.90;;;;;;5051344;28;20645;-48
2023/02/13 11:37:23;;;;;;;30.17;19.87;;;7.70;99.90;;;;;;5051197;28;20202;-49
2023/02/13 11:39:52;;;;;;;28.30;19.40;;;7.50;99.90;;;;;;5051333;28;20211;-48
2023/02/13 11:42:26;;;;;;;28.57;20.03;;;7.40;99.90;;;;;;5052230;28;20600;-47
2023/02/13 11:44:55;;;;;;;30.50;20.30;;;7.70;99.90;;;;;;5061531;28;20207;-48
2023/02/13 11:47:36;;;;;;;29.63;20.10;;;8.00;99.90;;;;;;5051941;28;20872;-48
2023/02/13 11:50:18;;;;;;;37.27;21.07;;;8.10;99.90;;;;;;5031164;28;20261;-47
2023/02/13 11:52:55;;;;;;;33.40;20.63;;;8.00;99.90;;;;;;5042588;28;20269;-47
2023/02/13 11:55:29;;;;;;;38.10;22.60;;;8.10;99.90;;;;;;5051210;28;20323;-48
2023/02/13 11:57:57;;;;;;;35.10;21.77;;;7.70;99.90;;;;;;5051080;28;20680;-47
2023/02/13 12:00:36;;;;;;;36.50;23.97;;;7.50;99.90;;;;;;5056353;28;20202;-47
2023/02/13 12:03:05;;;;;;;36.60;23.23;;;7.50;99.90;;;;;;5055598;28;20316;-47
2023/02/13 12:05:34;;;;;;;33.10;20.73;;;7.40;99.90;;;;;;5054048;28;20203;-49
2023/02/13 12:08:01;;;;;;;37.70;23.13;;;7.60;99.90;;;;;;5050990;28;20265;-49
2023/02/13 12:10:31;;;;;;;34.67;23.03;;;7.40;99.90;;;;;;5050445;28;20264;-48
2023/02/13 12:13:02;;;;;;;35.20;21.97;;;7.10;99.90;;;;;;5049132;28;20758;-49
2023/02/13 12:15:32;;;;;;;33.80;22.47;;;7.20;99.90;;;;;;5061417;28;20833;-48
2023/02/13 12:18:16;;;;;;;35.93;22.67;;;7.30;99.90;;;;;;5042359;28;20198;-48
2023/02/13 12:20:57;;;;;;;39.67;23.13;;;7.30;99.90;;;;;;5060185;28;20208;-49
2023/02/13 12:23:34;;;;;;;35.97;22.10;;;7.20;99.90;;;;;;5061008;28;20718;-48
2023/02/13 12:26:23;;;;;;;40.30;23.40;;;6.80;99.90;;;;;;5052967;28;20208;-48
2023/02/13 12:29:16;;;;;;;39.93;25.17;;;6.70;99.90;;;;;;5059306;28;20203;-48
2023/02/13 12:31:56;;;;;;;39.13;24.23;;;6.80;99.90;;;;;;5057916;28;20287;-48
2023/02/13 12:35:01;;;;;;;39.83;23.60;;;6.70;99.90;;;;;;5061771;28;20783;-48
2023/02/13 12:37:44;;;;;;;39.53;24.50;;;6.80;99.90;;;;;;5062605;28;20617;-48
2023/02/13 12:40:37;;;;;;;39.20;23.20;;;6.50;99.90;;;;;;5072491;28;20206;-48
2023/02/13 12:43:22;;;;;;;45.90;24.57;;;6.20;99.90;;;;;;5053856;28;20230;-48
2023/02/13 12:45:55;;;;;;;41.77;24.13;;;6.40;99.90;;;;;;5054727;28;20652;-47
2023/02/13 12:48:33;;;;;;;35.87;22.90;;;6.20;99.90;;;;;;5061805;28;20260;-46
2023/02/13 12:51:13;;;;;;;41.33;24.13;;;6.00;99.90;;;;;;5053597;28;20557;-46
2023/02/13 12:54:05;;;;;;;34.97;22.87;;;6.10;99.90;;;;;;5053745;28;20211;-48
2023/02/13 12:56:54;;;;;;;52.40;25.67;;;6.00;99.90;;;;;;5053824;28;20270;-48
2023/02/13 12:59:31;;;;;;;37.17;22.20;;;6.10;99.90;;;;;;5052281;28;20252;-48
2023/02/13 13:02:13;;;;;;;39.83;23.67;;;5.80;99.90;;;;;;5060996;28;20274;-47
2023/02/13 13:04:53;;;;;;;43.03;24.13;;;5.60;99.90;;;;;;5071353;28;20203;-47
2023/02/13 13:07:45;;;;;;;41.70;23.80;;;5.70;99.90;;;;;;5053747;28;20211;-48
2023/02/13 13:10:35;;;;;;;39.43;22.97;;;5.80;99.90;;;;;;5053322;28;20201;-48
2023/02/13 13:13:11;;;;;;;39.53;23.77;;;6.00;99.90;;;;;;5053456;28;20281;-48
2023/02/13 13:15:49;;;;;;;43.03;22.60;;;5.90;99.90;;;;;;5060464;28;20225;-48
2023/02/13 13:18:27;;;;;;;40.17;23.20;;;5.90;99.90;;;;;;5067783;28;20239;-47
2023/02/13 13:21:07;;;;;;;41.10;23.03;;;5.90;99.90;;;;;;5073203;28;20206;-49
2023/02/13 13:23:40;;;;;;;38.33;21.73;;;5.90;99.90;;;;;;5058722;28;20207;-48
2023/02/13 13:26:17;;;;;;;38.23;22.90;;;6.00;99.90;;;;;;5053562;28;20209;-48
2023/02/13 13:28:47;;;;;;;37.83;21.77;;;6.20;99.90;;;;;;5052941;28;20212;-47
2023/02/13 13:31:15;;;;;;;35.90;22.90;;;6.30;99.90;;;;;;5060683;28;20222;-48
2023/02/13 13:33:45;;;;;;;38.63;23.27;;;6.40;99.90;;;;;;5059487;28;20204;-48
2023/02/13 13:36:19;;;;;;;39.30;23.20;;;6.30;99.90;;;;;;5053256;28;20220;-48
2023/02/13 13:38:58;;;;;;;41.10;23.97;;;6.40;99.90;;;;;;5053042;28;20203;-47